KO4MMQ-10 Weather Reports


Display with metric or nautical units.
time (UTC)temp
F
wind
direction
speed
MPH
gust
MPH
rain 1hr
in
rain 24hr
in
rain mn
in
humidity
%
barometer
mb
20260906060557 81 0 0.0 0.0 0.00 0.00 0.00 81 1011.9
20260906055557 81 0 0.0 0.0 0.00 0.00 0.00 83 1012.0
20260906054557 81 0 0.0 0.0 0.00 0.00 0.00 82 1011.8
20260906053557 81 0 0.0 0.0 0.00 0.00 0.00 82 1011.8
20260906052558 81 0 0.0 0.0 0.00 0.00 0.00 80 1011.8
20260906051557 82 0 0.0 0.0 0.00 0.00 0.00 79 1011.8
20260906050557 82 0 0.0 0.0 0.00 0.00 0.00 79 1011.8
20260906045557 81 0 0.0 0.0 0.00 0.00 0.00 79 1011.7
20260906044557 82 0 0.0 0.0 0.00 0.00 0.00 78 1011.6
20260906043558 82 0 0.0 0.0 0.00 0.00 0.00 77 1011.6
20260906042558 82 0 0.0 0.0 0.00 0.00 0.00 76 1011.6
20260906041557 83 0 0.0 0.0 0.00 0.00 0.00 75 1011.7
20260906040558 83 0 0.0 0.0 0.00 0.00 0.00 74 1011.8
20260906035557 83 0 0.0 0.0 0.00 0.00 0.00 74 1011.8
20260906034557 83 0 0.0 0.0 0.00 0.00 0.00 73 1011.8
20260906033557 83 0 0.0 0.0 0.00 0.00 0.00 72 1011.7
20260906032557 83 0 0.0 0.0 0.00 0.00 0.00 73 1011.8
20260906031558 83 0 0.0 0.0 0.00 0.00 0.00 72 1011.7
20260906030558 84 0 0.0 0.0 0.00 0.00 0.00 72 1011.7
20260906025558 84 0 0.0 0.0 0.00 0.00 0.00 71 1011.6
20260906024557 85 0 0.0 0.0 0.00 0.00 0.00 71 1011.6
20260906023557 85 0 0.0 0.0 0.00 0.00 0.00 70 1011.6
20260906022558 85 0 0.0 0.0 0.00 0.00 0.00 70 1011.4
20260906021557 86 0 0.0 0.0 0.00 0.00 0.00 69 1011.4
20260906020557 86 0 0.0 0.0 0.00 0.00 0.00 67 1011.2
20260906015557 86 0 0.0 0.0 0.00 0.00 0.00 66 1011.1
20260906014557 87 0 0.0 0.0 0.00 0.00 0.00 66 1011.0
20260906013557 87 0 0.0 0.0 0.00 0.00 0.00 65 1010.8
20260906012557 87 0 0.0 0.0 0.00 0.00 0.00 64 1010.7
20260906011557 88 0 0.0 0.0 0.00 0.00 0.00 62 1010.2
20260906010558 88 0 0.0 0.0 0.00 0.00 0.00 62 1010.3
20260906005559 89 0 0.0 0.0 0.00 0.00 0.00 60 1010.3
20260906004558 89 0 0.0 0.0 0.00 0.00 0.00 59 1010.2
20260906003559 90 0 0.0 0.0 0.00 0.00 0.00 57 1010.0
20260906002557 91 0 0.0 0.0 0.00 0.00 0.00 56 1010.2
20260906001557 92 0 0.0 0.0 0.00 0.00 0.00 54 1010.2
20260906000557 93 0 0.0 0.0 0.00 0.00 0.00 53 1010.1
20260905235558 94 0 0.0 0.0 0.00 0.00 0.00 51 1010.3
20260905234557 95 0 0.0 0.0 0.00 0.00 0.00 50 1010.1
20260905233557 95 0 0.0 0.0 0.00 0.00 0.00 49 1010.3
20260905232557 96 0 0.0 0.0 0.00 0.00 0.00 48 1010.4
20260905231557 97 0 0.0 0.0 0.00 0.00 0.00 46 1010.2
20260905230557 98 0 0.0 0.0 0.00 0.00 0.00 45 1010.1
20260905225557 99 0 0.0 1.0 0.00 0.00 0.00 43 1010.0
20260905224557 99 0 0.0 0.0 0.00 0.00 0.00 42 1010.2
20260905223557 100 0 0.0 0.0 0.00 0.00 0.00 41 1010.1
20260905222558 101 0 0.0 2.0 0.00 0.00 0.00 40 1010.2
20260905221558 100 0 0.0 1.0 0.00 0.00 0.00 41 1010.3
20260905220558 100 0 0.0 2.0 0.00 0.00 0.00 41 1010.3
20260905215558 99 0 0.0 1.0 0.00 0.00 0.00 43 1010.3
20260905214558 98 32 1.0 2.0 0.00 0.00 0.00 46 1010.5
20260905213558 97 63 1.0 3.0 0.00 0.00 0.00 47 1010.4
20260905212558 97 56 2.0 3.0 0.00 0.00 0.00 48 1010.6
20260905211558 98 43 1.0 2.0 0.00 0.00 0.00 46 1010.6
20260905210558 98 36 1.0 2.0 0.00 0.00 0.00 46 1010.6
20260905205559 99 110 2.0 3.0 0.00 0.00 0.00 44 1010.9
20260905204558 101 63 1.0 3.0 0.00 0.00 0.00 41 1010.9
20260905203558 100 0 0.0 1.0 0.00 0.00 0.00 41 1011.1
20260905202558 98 28 2.0 3.0 0.00 0.00 0.00 44 1011.3
20260905201558 97 64 1.0 2.0 0.00 0.00 0.00 48 1011.4
20260905200558 98 48 3.0 3.0 0.00 0.00 0.00 45 1011.5
20260905195558 101 38 4.0 6.0 0.00 0.00 0.00 43 1011.6
20260905194558 102 36 2.0 2.0 0.00 0.00 0.00 40 1011.8
20260905193558 102 30 1.0 1.0 0.00 0.00 0.00 39 1011.8
20260905192558 101 48 2.0 4.0 0.00 0.00 0.00 40 1012.0
20260905191558 100 27 2.0 2.0 0.00 0.00 0.00 42 1012.2
20260905190559 100 21 1.0 2.0 0.00 0.00 0.00 43 1012.3
20260905185559 99 32 1.0 2.0 0.00 0.00 0.00 44 1012.3
20260905184558 99 25 1.0 2.0 0.00 0.00 0.00 44 1012.5
20260905183558 100 342 1.0 1.0 0.00 0.00 0.00 45 1012.6
20260905182558 100 0 0.0 0.0 0.00 0.00 0.00 45 1012.6
20260905181558 100 51 1.0 2.0 0.00 0.00 0.00 45 1012.8
20260905180558 99 79 1.0 1.0 0.00 0.00 0.00 48 1012.9
20260905175558 99 22 3.0 4.0 0.00 0.00 0.00 47 1013.1
20260905174559 99 0 0.0 1.0 0.00 0.00 0.00 46 1013.2
20260905173558 99 335 1.0 1.0 0.00 0.00 0.00 46 1013.3
20260905172558 98 338 1.0 3.0 0.00 0.00 0.00 47 1013.3
20260905171558 98 0 0.0 1.0 0.00 0.00 0.00 50 1013.4
20260905170558 97 52 2.0 2.0 0.00 0.00 0.00 50 1013.4
20260905165558 97 0 0.0 0.0 0.00 0.00 0.00 52 1013.5
20260905164558 96 0 0.0 2.0 0.00 0.00 0.00 53 1013.6
20260905163558 96 0 0.0 0.0 0.00 0.00 0.00 54 1013.7
20260905162558 97 232 2.0 2.0 0.00 0.00 0.00 55 1013.8
20260905161558 95 0 0.0 3.0 0.00 0.00 0.00 56 1014.1
20260905160558 94 86 2.0 2.0 0.00 0.00 0.00 53 1014.0
20260905155558 93 0 0.0 1.0 0.00 0.00 0.00 56 1014.0
20260905154558 92 0 0.0 1.0 0.00 0.00 0.00 59 1014.0
20260905153558 91 0 0.0 0.0 0.00 0.00 0.00 59 1014.0
20260905152558 91 70 1.0 1.0 0.00 0.00 0.00 61 1014.2
20260905151558 90 0 0.0 0.0 0.00 0.00 0.00 63 1014.3
20260905150558 89 0 0.0 0.0 0.00 0.00 0.00 66 1014.1
20260905145558 88 0 0.0 0.0 0.00 0.00 0.00 68 1014.0
20260905144559 87 0 0.0 0.0 0.00 0.00 0.00 69 1014.0
20260905143558 87 0 0.0 0.0 0.00 0.00 0.00 69 1014.1
20260905142559 86 0 0.0 0.0 0.00 0.00 0.00 72 1013.9
20260905141558 85 0 0.0 0.0 0.00 0.00 0.00 73 1014.1
20260905140558 84 0 0.0 0.0 0.00 0.00 0.00 73 1013.8
20260905135558 83 0 0.0 0.0 0.00 0.00 0.00 75 1013.9
20260905134558 83 0 0.0 0.0 0.00 0.00 0.00 77 1014.0
20260905133558 82 0 0.0 0.0 0.00 0.00 0.00 79 1014.0
20260905132558 81 0 0.0 0.0 0.00 0.00 0.00 81 1014.0
20260905131558 80 0 0.0 0.0 0.00 0.00 0.00 82 1013.9
20260905130558 79 0 0.0 0.0 0.00 0.00 0.00 84 1014.1
20260905125558 78 0 0.0 0.0 0.00 0.00 0.00 85 1013.9
20260905124558 77 0 0.0 0.0 0.00 0.00 0.00 86 1014.0
20260905123558 77 0 0.0 0.0 0.00 0.00 0.00 87 1013.9
20260905122558 76 0 0.0 0.0 0.00 0.00 0.00 87 1013.8
20260905121558 76 0 0.0 0.0 0.00 0.00 0.00 88 1013.9
20260905120558 76 0 0.0 0.0 0.00 0.00 0.00 88 1013.8
20260905115558 76 0 0.0 0.0 0.00 0.00 0.00 89 1013.9
20260905114558 76 0 0.0 0.0 0.00 0.00 0.00 88 1013.7
20260905113558 76 0 0.0 0.0 0.00 0.00 0.00 88 1013.6
20260905112557 76 0 0.0 0.0 0.00 0.00 0.00 87 1013.5
20260905111557 76 0 0.0 0.0 0.00 0.00 0.00 87 1013.3
20260905110558 77 0 0.0 0.0 0.00 0.00 0.00 87 1013.4
20260905105557 76 0 0.0 0.0 0.00 0.00 0.00 88 1013.4
20260905104558 76 0 0.0 0.0 0.00 0.00 0.00 88 1013.4
20260905103557 77 0 0.0 0.0 0.00 0.00 0.00 88 1013.4
20260905102558 76 0 0.0 0.0 0.00 0.00 0.00 88 1013.3
20260905101558 76 0 0.0 0.0 0.00 0.00 0.00 88 1013.3
20260905100557 77 0 0.0 0.0 0.00 0.00 0.00 88 1013.3
20260905095557 77 0 0.0 0.0 0.00 0.00 0.00 88 1013.3
20260905094557 77 0 0.0 0.0 0.00 0.00 0.00 88 1013.1
20260905093558 77 0 0.0 0.0 0.00 0.00 0.00 87 1013.1
20260905092557 77 0 0.0 0.0 0.00 0.00 0.00 87 1013.1
20260905091558 78 0 0.0 0.0 0.00 0.00 0.00 85 1013.2
20260905090558 78 0 0.0 0.0 0.00 0.00 0.00 84 1013.2
20260905085558 78 0 0.0 0.0 0.00 0.00 0.00 84 1013.1
20260905084557 78 0 0.0 0.0 0.00 0.00 0.00 83 1013.0
20260905083557 78 0 0.0 0.0 0.00 0.00 0.00 84 1013.1
20260905082558 78 0 0.0 0.0 0.00 0.00 0.00 83 1013.1
20260905081557 78 0 0.0 0.0 0.00 0.00 0.00 83 1013.2
20260905080557 79 0 0.0 0.0 0.00 0.00 0.00 83 1013.1
20260905075558 78 0 0.0 0.0 0.00 0.00 0.00 83 1013.1
20260905074557 79 0 0.0 0.0 0.00 0.00 0.00 83 1013.1
20260905073557 79 0 0.0 0.0 0.00 0.00 0.00 83 1013.2
20260905072558 79 0 0.0 0.0 0.00 0.00 0.00 82 1013.4
20260905071557 79 0 0.0 0.0 0.00 0.00 0.00 82 1013.2
20260905070557 79 0 0.0 0.0 0.00 0.00 0.00 81 1013.3
20260905065557 79 0 0.0 0.0 0.00 0.00 0.00 81 1013.3
20260905064557 80 0 0.0 0.0 0.00 0.00 0.00 81 1013.4
20260905063557 80 0 0.0 0.0 0.00 0.00 0.00 80 1013.3
20260905062557 80 0 0.0 0.0 0.00 0.00 0.00 80 1013.2
20260905061557 80 0 0.0 0.0 0.00 0.00 0.00 80 1013.4